Terminal Aerodrome Forecast
Issued by NWS

Home | Current Version | Previous Version | Graphics & Text | Print | Product List | Glossary On
Versions: 1 2 3 4 5 6 7 8 9 10 11 12 13 14 15
261
FTUS43 KMPX 271720
TAFRNH
TAF
KRNH 271720Z 2718/2818 21010KT P6SM BKN250
     FM272000 19011G18KT P6SM FEW050 BKN250
     FM280100 16009KT P6SM BKN250
     FM280600 16008KT P6SM SCT100 BKN250 WS020/20040KT
     FM280800 15008KT P6SM VCTS SCT050 BKN100CB WS020/19040KT
     FM281000 16011G19KT 5SM -SHRA VCTS SCT025 OVC050CB
      WS020/19040KT
     FM281200 16011G19KT 5SM SHRA VCTS BKN025 OVC045CB
     FM281400 18010G18KT 6SM -SHRA OVC015=

USA.gov is the U.S. government's official web portal to all federal, state and local government web resources and services.